Granite Falls, WA (98252)

12:52 PM PDT on September 01, 2014 (GMT -0700)
Lake Roesiger- N Lk-W Shore | Change Station
CLOSE
Current Station
Personal Weather Station
Location: Snohomish, WA
Elevation: 625 ft
Nearby Weather Stations

Elev 625 ft 47.99 °N, 121.92 °W | Updated 12 minutes ago

Partly Cloudy
Partly Cloudy
63.7 °F
Feels Like 63.7 °F
N
1.3
Wind Variable Wind from West
Gusts 1.3 mph

Today
High -- | Low -- °F
--% Chance of Precip.
Yesterday
High -- | Low -- °F
Precip. -- in
6:24 AM 7:47 PM
Waxing Crescent, 43% visible
Pressure 30.08 in
Visibility 10.0 miles
Clouds Overcast 9000 ft
Dew Point 54 °F
Humidity 70%
Rainfall 0.00 in
Snow Depth 0 in
UV 2 out of 12
Pollen 2.80 out of 12
PM2.5 Good
Flu Activity Not available.
METAR KAWO 011935Z AUTO 16008KT 10SM OVC090 20/12 A3008 RMK AO1

More Conditions Fewer Conditions

Pressure 30.08 in
Visibility 10.0 miles
Clouds Overcast 9000 ft
Dew Point 54 °F
Humidity 70%
Rainfall 0.00 in
Snow Depth 0 in
UV 2 out of 12
Pollen 2.80 out of 12
PM2.5 Good
Flu Activity Not available.
METAR KAWO 011935Z AUTO 16008KT 10SM OVC090 20/12 A3008 RMK AO1

More Conditions Fewer Conditions

10-Day Weather Forecast

Almanac

Astronomy

Sep. 01, 2014 Rise Set
Actual Time 6:24 AM PDT 7:47 PM PDT
Civil Twilight 5:52 AM PDT 8:19 PM PDT
Nautical Twilight 5:13 AM PDT 8:58 PM PDT
Astronomical Twilight 4:31 AM PDT 9:40 PM PDT
Moon 1:46 PM PDT 11:21 PM PDT
Length of Visible Light 14h 27m
Length of Day
13h 22m
Tomorrow will be 3m 22s shorter.
Waxing Crescent, 43% of the Moon is Illuminated
Today
Waxing Crescent
Sep 2
First Quarter
Sep 8
Full
Sep 15
Last Quarter
Sep 24
New

Today's Extremes

State Highs State Lows

Community

WunderPhotos

Upload Photos

1,749,387 photos uploaded!

WunderBlogs® & News

Nearby

Air Quality

  Air Quality AQ Index Pollutant
Yesterday Good
OZONE
Yesterday Good
PM2.5
Current Good
PM2.5
Monday Good
OZONE
Monday Good
PM2.5
Tuesday Good
OZONE
Tuesday Good
PM2.5
Wednesday Good
OZONE
Wednesday Good
PM2.5

Snow Depth

Station Depth Elevation
Alpine Meadows 0 in 3500 ft
Stevens Pass 0 in 4070 ft
Lyman Lake 0 in 5900 ft
Meadows Pass 0 in 3500 ft
Sasse Ridge 0 in 4200 ft

Earthquake Activity

City Distance Mag. Time & Date
No recent earthquake activity has been reported nearby.
Minimum magnitude displayed is 2.5.

Coastal Water Temperatures

Place Temperature
Port Townsend, WA 53.1 °F
Seattle, WA 55.9 °F
Friday Harbor, WA 53.1 °F
Tacoma, WA 55.0 °F

Nearby Weather Stations